sensor_id;sensor_type;location;lat;lon;timestamp;temperature;humidity
13998;DHT22;7074;51.508;7.018;2022-12-18T04:06:45;-5.30;99.90
13998;DHT22;7074;51.508;7.018;2022-12-18T04:10:00;-5.20;99.90
13998;DHT22;7074;51.508;7.018;2022-12-18T04:12:39;-5.30;99.90
13998;DHT22;7074;51.508;7.018;2022-12-18T04:15:14;-5.20;99.90
13998;DHT22;7074;51.508;7.018;2022-12-18T04:17:48;-5.20;99.90
13998;DHT22;7074;51.508;7.018;2022-12-18T04:20:19;-5.20;99.90
13998;DHT22;7074;51.508;7.018;2022-12-18T04:22:48;-5.20;99.90
13998;DHT22;7074;51.508;7.018;2022-12-18T04:25:18;-5.20;99.90
13998;DHT22;7074;51.508;7.018;2022-12-18T04:27:57;-5.20;99.90
13998;DHT22;7074;51.508;7.018;2022-12-18T04:30:25;-5.30;99.90
13998;DHT22;7074;51.508;7.018;2022-12-18T04:32:52;-5.30;99.90
13998;DHT22;7074;51.508;7.018;2022-12-18T04:35:21;-5.30;99.90
13998;DHT22;7074;51.508;7.018;2022-12-18T04:37:50;-5.30;99.90
13998;DHT22;7074;51.508;7.018;2022-12-18T04:40:17;-5.20;99.90
13998;DHT22;7074;51.508;7.018;2022-12-18T04:42:46;-5.10;99.90
13998;DHT22;7074;51.508;7.018;2022-12-18T04:45:14;-5.20;99.90
13998;DHT22;7074;51.508;7.018;2022-12-18T04:47:41;-5.20;99.90
13998;DHT22;7074;51.508;7.018;2022-12-18T04:50:09;-5.10;99.90
13998;DHT22;7074;51.508;7.018;2022-12-18T04:52:36;-5.20;99.90
13998;DHT22;7074;51.508;7.018;2022-12-18T04:55:05;-5.20;99.90
13998;DHT22;7074;51.508;7.018;2022-12-18T04:57:32;-5.10;99.90
13998;DHT22;7074;51.508;7.018;2022-12-18T05:00:00;-5.20;99.90
13998;DHT22;7074;51.508;7.018;2022-12-18T05:02:27;-5.20;99.90
13998;DHT22;7074;51.508;7.018;2022-12-18T05:04:54;-5.20;99.90
13998;DHT22;7074;51.508;7.018;2022-12-18T05:07:21;-5.20;99.90
13998;DHT22;7074;51.508;7.018;2022-12-18T05:09:48;-5.10;99.90
13998;DHT22;7074;51.508;7.018;2022-12-18T05:12:17;-5.20;99.90
13998;DHT22;7074;51.508;7.018;2022-12-18T05:14:44;-5.20;99.90
13998;DHT22;7074;51.508;7.018;2022-12-18T05:17:12;-5.20;99.90
13998;DHT22;7074;51.508;7.018;2022-12-18T05:19:39;-5.20;99.90
13998;DHT22;7074;51.508;7.018;2022-12-18T05:22:06;-5.20;99.90
13998;DHT22;7074;51.508;7.018;2022-12-18T05:24:33;-5.20;99.90
13998;DHT22;7074;51.508;7.018;2022-12-18T05:27:01;-5.20;99.90
13998;DHT22;7074;51.508;7.018;2022-12-18T05:29:29;-5.20;99.90
13998;DHT22;7074;51.508;7.018;2022-12-18T05:31:56;-5.30;99.90
13998;DHT22;7074;51.508;7.018;2022-12-18T05:34:24;-5.40;99.90
13998;DHT22;7074;51.508;7.018;2022-12-18T05:36:51;-5.40;99.90
13998;DHT22;7074;51.508;7.018;2022-12-18T05:39:18;-5.30;99.90
13998;DHT22;7074;51.508;7.018;2022-12-18T05:41:45;-5.30;99.90
13998;DHT22;7074;51.508;7.018;2022-12-18T05:44:13;-5.40;99.90
13998;DHT22;7074;51.508;7.018;2022-12-18T05:46:41;-5.50;99.90
13998;DHT22;7074;51.508;7.018;2022-12-18T05:49:09;-5.50;99.90
13998;DHT22;7074;51.508;7.018;2022-12-18T05:51:36;-5.50;99.90
13998;DHT22;7074;51.508;7.018;2022-12-18T05:54:03;-5.60;99.90
13998;DHT22;7074;51.508;7.018;2022-12-18T05:56:30;-5.60;99.90
13998;DHT22;7074;51.508;7.018;2022-12-18T05:58:57;-5.50;99.90
13998;DHT22;7074;51.508;7.018;2022-12-18T06:01:26;-5.50;99.90
13998;DHT22;7074;51.508;7.018;2022-12-18T06:03:55;-5.50;99.90
13998;DHT22;7074;51.508;7.018;2022-12-18T06:06:24;-5.60;99.90
13998;DHT22;7074;51.508;7.018;2022-12-18T06:08:51;-5.60;99.90
13998;DHT22;7074;51.508;7.018;2022-12-18T06:11:20;-5.60;99.90
13998;DHT22;7074;51.508;7.018;2022-12-18T06:13:50;-5.50;99.90
13998;DHT22;7074;51.508;7.018;2022-12-18T06:16:18;-5.50;99.90
13998;DHT22;7074;51.508;7.018;2022-12-18T06:18:45;-5.50;99.90
13998;DHT22;7074;51.508;7.018;2022-12-18T06:21:14;-5.60;99.90
13998;DHT22;7074;51.508;7.018;2022-12-18T06:23:41;-5.60;99.90
13998;DHT22;7074;51.508;7.018;2022-12-18T06:26:11;-5.60;99.90
13998;DHT22;7074;51.508;7.018;2022-12-18T06:28:38;-5.60;99.90
13998;DHT22;7074;51.508;7.018;2022-12-18T06:31:06;-5.70;99.90
13998;DHT22;7074;51.508;7.018;2022-12-18T06:33:34;-5.70;99.90
13998;DHT22;7074;51.508;7.018;2022-12-18T06:36:02;-5.70;99.90
13998;DHT22;7074;51.508;7.018;2022-12-18T06:38:31;-5.70;99.90
13998;DHT22;7074;51.508;7.018;2022-12-18T06:40:58;-5.70;99.90
13998;DHT22;7074;51.508;7.018;2022-12-18T06:43:25;-5.60;99.90
13998;DHT22;7074;51.508;7.018;2022-12-18T06:46:00;-5.60;99.90
13998;DHT22;7074;51.508;7.018;2022-12-18T06:48:28;-5.60;99.90
13998;DHT22;7074;51.508;7.018;2022-12-18T06:50:55;-5.60;99.90
13998;DHT22;7074;51.508;7.018;2022-12-18T06:53:23;-5.60;99.90
13998;DHT22;7074;51.508;7.018;2022-12-18T06:55:51;-5.60;99.90
13998;DHT22;7074;51.508;7.018;2022-12-18T06:58:18;-5.50;99.90
13998;DHT22;7074;51.508;7.018;2022-12-18T07:00:46;-5.70;99.90
13998;DHT22;7074;51.508;7.018;2022-12-18T07:03:13;-5.70;99.90
13998;DHT22;7074;51.508;7.018;2022-12-18T07:05:41;-5.70;99.90
13998;DHT22;7074;51.508;7.018;2022-12-18T07:08:08;-5.70;99.90
13998;DHT22;7074;51.508;7.018;2022-12-18T07:10:41;-5.60;99.90
13998;DHT22;7074;51.508;7.018;2022-12-18T07:13:10;-5.60;99.90
13998;DHT22;7074;51.508;7.018;2022-12-18T07:15:37;-5.60;99.90
13998;DHT22;7074;51.508;7.018;2022-12-18T07:18:04;-5.80;99.90
13998;DHT22;7074;51.508;7.018;2022-12-18T07:20:31;-5.70;99.90
13998;DHT22;7074;51.508;7.018;2022-12-18T07:22:58;-5.70;99.90
13998;DHT22;7074;51.508;7.018;2022-12-18T07:25:26;-5.70;99.90
13998;DHT22;7074;51.508;7.018;2022-12-18T07:27:53;-5.60;99.90
13998;DHT22;7074;51.508;7.018;2022-12-18T07:30:22;-5.60;99.90
13998;DHT22;7074;51.508;7.018;2022-12-18T07:32:49;-5.60;99.90
13998;DHT22;7074;51.508;7.018;2022-12-18T07:35:17;-5.60;99.90
13998;DHT22;7074;51.508;7.018;2022-12-18T07:37:44;-5.60;99.90
13998;DHT22;7074;51.508;7.018;2022-12-18T07:40:12;-5.50;99.90
13998;DHT22;7074;51.508;7.018;2022-12-18T07:42:39;-5.50;99.90
13998;DHT22;7074;51.508;7.018;2022-12-18T07:45:07;-5.50;99.90
13998;DHT22;7074;51.508;7.018;2022-12-18T07:47:36;-5.40;99.90
13998;DHT22;7074;51.508;7.018;2022-12-18T07:50:04;-5.40;99.90
13998;DHT22;7074;51.508;7.018;2022-12-18T07:52:32;-5.40;99.90
13998;DHT22;7074;51.508;7.018;2022-12-18T07:54:59;-5.40;99.90
13998;DHT22;7074;51.508;7.018;2022-12-18T07:57:26;-5.40;99.90
13998;DHT22;7074;51.508;7.018;2022-12-18T07:59:53;-5.50;99.90
13998;DHT22;7074;51.508;7.018;2022-12-18T08:02:20;-5.60;99.90
13998;DHT22;7074;51.508;7.018;2022-12-18T08:04:49;-5.50;99.90
13998;DHT22;7074;51.508;7.018;2022-12-18T08:07:16;-5.50;99.90
13998;DHT22;7074;51.508;7.018;2022-12-18T08:09:44;-5.30;99.90
13998;DHT22;7074;51.508;7.018;2022-12-18T08:12:11;-5.30;99.90
13998;DHT22;7074;51.508;7.018;2022-12-18T08:14:38;-5.20;99.90
13998;DHT22;7074;51.508;7.018;2022-12-18T08:17:05;-5.20;99.90
13998;DHT22;7074;51.508;7.018;2022-12-18T08:19:32;-5.10;99.90
13998;DHT22;7074;51.508;7.018;2022-12-18T08:22:01;-5.10;99.90
13998;DHT22;7074;51.508;7.018;2022-12-18T08:24:28;-5.00;99.90
13998;DHT22;7074;51.508;7.018;2022-12-18T08:26:55;-4.90;99.90
13998;DHT22;7074;51.508;7.018;2022-12-18T08:29:23;-4.80;99.90
13998;DHT22;7074;51.508;7.018;2022-12-18T08:31:50;-4.80;99.90
13998;DHT22;7074;51.508;7.018;2022-12-18T08:34:17;-4.80;99.90
13998;DHT22;7074;51.508;7.018;2022-12-18T08:36:44;-4.60;99.90
13998;DHT22;7074;51.508;7.018;2022-12-18T08:39:13;-4.60;99.90
13998;DHT22;7074;51.508;7.018;2022-12-18T08:41:40;-4.50;99.90
13998;DHT22;7074;51.508;7.018;2022-12-18T08:44:08;-4.40;99.90
13998;DHT22;7074;51.508;7.018;2022-12-18T08:46:52;-4.30;99.90
13998;DHT22;7074;51.508;7.018;2022-12-18T08:49:19;-4.20;99.90
13998;DHT22;7074;51.508;7.018;2022-12-18T08:51:47;-4.20;99.90
13998;DHT22;7074;51.508;7.018;2022-12-18T08:54:15;-4.10;99.90
13998;DHT22;7074;51.508;7.018;2022-12-18T08:56:42;-3.90;99.90
13998;DHT22;7074;51.508;7.018;2022-12-18T08:59:10;-3.80;99.90
13998;DHT22;7074;51.508;7.018;2022-12-18T09:01:37;-3.70;99.90
13998;DHT22;7074;51.508;7.018;2022-12-18T09:04:04;-3.70;99.90
13998;DHT22;7074;51.508;7.018;2022-12-18T09:06:31;-3.60;99.90
13998;DHT22;7074;51.508;7.018;2022-12-18T09:08:59;-3.50;99.90
13998;DHT22;7074;51.508;7.018;2022-12-18T09:11:28;-3.40;99.90
13998;DHT22;7074;51.508;7.018;2022-12-18T09:13:56;-3.20;99.90
13998;DHT22;7074;51.508;7.018;2022-12-18T09:16:25;-3.10;99.90
13998;DHT22;7074;51.508;7.018;2022-12-18T09:18:54;-3.00;99.90
13998;DHT22;7074;51.508;7.018;2022-12-18T09:21:26;-2.90;99.90
13998;DHT22;7074;51.508;7.018;2022-12-18T09:23:55;-2.90;99.90
13998;DHT22;7074;51.508;7.018;2022-12-18T09:26:23;-2.80;99.90
13998;DHT22;7074;51.508;7.018;2022-12-18T09:28:52;-2.70;99.90
13998;DHT22;7074;51.508;7.018;2022-12-18T09:31:21;-2.60;99.90
13998;DHT22;7074;51.508;7.018;2022-12-18T09:33:49;-2.70;99.90
13998;DHT22;7074;51.508;7.018;2022-12-18T09:36:17;-2.60;99.90
13998;DHT22;7074;51.508;7.018;2022-12-18T09:38:45;-2.50;99.90
13998;DHT22;7074;51.508;7.018;2022-12-18T09:41:27;-2.40;99.90
13998;DHT22;7074;51.508;7.018;2022-12-18T09:44:03;-2.30;99.90
13998;DHT22;7074;51.508;7.018;2022-12-18T09:46:34;-2.20;99.90
13998;DHT22;7074;51.508;7.018;2022-12-18T09:49:06;-2.20;99.90
13998;DHT22;7074;51.508;7.018;2022-12-18T09:51:37;-2.10;99.90
13998;DHT22;7074;51.508;7.018;2022-12-18T09:54:12;-2.00;99.90
13998;DHT22;7074;51.508;7.018;2022-12-18T09:56:42;-1.90;99.90
13998;DHT22;7074;51.508;7.018;2022-12-18T09:59:21;-1.90;99.90
13998;DHT22;7074;51.508;7.018;2022-12-18T10:01:50;-1.80;99.90
13998;DHT22;7074;51.508;7.018;2022-12-18T10:04:18;-1.70;99.90
13998;DHT22;7074;51.508;7.018;2022-12-18T10:06:50;-1.60;99.90
13998;DHT22;7074;51.508;7.018;2022-12-18T10:09:27;-1.60;99.90
13998;DHT22;7074;51.508;7.018;2022-12-18T10:12:02;-1.50;99.90
13998;DHT22;7074;51.508;7.018;2022-12-18T10:14:40;-1.40;99.90
13998;DHT22;7074;51.508;7.018;2022-12-18T10:17:19;-1.30;99.90
13998;DHT22;7074;51.508;7.018;2022-12-18T10:19:52;-1.20;99.90
13998;DHT22;7074;51.508;7.018;2022-12-18T10:22:32;-1.10;99.90
13998;DHT22;7074;51.508;7.018;2022-12-18T10:25:05;-1.10;99.90
13998;DHT22;7074;51.508;7.018;2022-12-18T10:27:34;-1.00;99.90
13998;DHT22;7074;51.508;7.018;2022-12-18T10:30:12;-1.00;99.90
13998;DHT22;7074;51.508;7.018;2022-12-18T10:32:40;-0.90;99.90
13998;DHT22;7074;51.508;7.018;2022-12-18T10:35:14;-0.80;99.90
13998;DHT22;7074;51.508;7.018;2022-12-18T10:37:59;-0.80;99.90
13998;DHT22;7074;51.508;7.018;2022-12-18T10:40:26;-0.60;99.90
13998;DHT22;7074;51.508;7.018;2022-12-18T10:43:04;-0.50;99.90
13998;DHT22;7074;51.508;7.018;2022-12-18T10:45:33;-0.40;99.90
13998;DHT22;7074;51.508;7.018;2022-12-18T10:48:01;-0.40;99.90
13998;DHT22;7074;51.508;7.018;2022-12-18T10:50:30;-0.30;99.90
13998;DHT22;7074;51.508;7.018;2022-12-18T10:52:59;-0.20;99.90
13998;DHT22;7074;51.508;7.018;2022-12-18T10:55:31;-0.20;99.90
13998;DHT22;7074;51.508;7.018;2022-12-18T10:58:16;-0.10;99.90
13998;DHT22;7074;51.508;7.018;2022-12-18T11:01:02;0.00;99.90
13998;DHT22;7074;51.508;7.018;2022-12-18T11:03:32;0.00;99.90
13998;DHT22;7074;51.508;7.018;2022-12-18T11:06:03;0.10;99.90
13998;DHT22;7074;51.508;7.018;2022-12-18T11:08:30;0.20;99.90
13998;DHT22;7074;51.508;7.018;2022-12-18T11:10:57;0.30;99.90
13998;DHT22;7074;51.508;7.018;2022-12-18T11:13:26;0.40;99.90
13998;DHT22;7074;51.508;7.018;2022-12-18T11:15:55;0.50;99.90
13998;DHT22;7074;51.508;7.018;2022-12-18T11:18:25;0.50;99.90
13998;DHT22;7074;51.508;7.018;2022-12-18T11:20:55;0.50;99.90
13998;DHT22;7074;51.508;7.018;2022-12-18T11:23:24;0.60;99.90
13998;DHT22;7074;51.508;7.018;2022-12-18T11:25:54;0.70;99.90
13998;DHT22;7074;51.508;7.018;2022-12-18T11:28:34;0.70;99.90
13998;DHT22;7074;51.508;7.018;2022-12-18T11:31:17;0.80;99.90
13998;DHT22;7074;51.508;7.018;2022-12-18T11:33:47;0.80;99.90
13998;DHT22;7074;51.508;7.018;2022-12-18T11:36:16;0.90;99.90
13998;DHT22;7074;51.508;7.018;2022-12-18T11:38:44;0.90;99.90
13998;DHT22;7074;51.508;7.018;2022-12-18T11:41:21;0.90;99.90
13998;DHT22;7074;51.508;7.018;2022-12-18T11:44:13;1.00;99.90
13998;DHT22;7074;51.508;7.018;2022-12-18T11:46:47;1.10;99.90
13998;DHT22;7074;51.508;7.018;2022-12-18T11:49:20;1.20;99.90
13998;DHT22;7074;51.508;7.018;2022-12-18T11:51:51;1.30;99.90
13998;DHT22;7074;51.508;7.018;2022-12-18T11:54:21;1.30;99.90
13998;DHT22;7074;51.508;7.018;2022-12-18T11:56:51;1.30;99.90
13998;DHT22;7074;51.508;7.018;2022-12-18T11:59:27;1.40;99.90
13998;DHT22;7074;51.508;7.018;2022-12-18T12:02:09;1.40;99.90
13998;DHT22;7074;51.508;7.018;2022-12-18T12:05:01;1.50;99.90
13998;DHT22;7074;51.508;7.018;2022-12-18T12:07:38;1.70;99.90
13998;DHT22;7074;51.508;7.018;2022-12-18T12:10:26;1.70;99.90
13998;DHT22;7074;51.508;7.018;2022-12-18T12:13:15;1.70;99.90
13998;DHT22;7074;51.508;7.018;2022-12-18T12:15:55;1.70;99.90
13998;DHT22;7074;51.508;7.018;2022-12-18T12:18:32;1.80;99.90
13998;DHT22;7074;51.508;7.018;2022-12-18T12:21:06;1.80;99.90
13998;DHT22;7074;51.508;7.018;2022-12-18T12:23:40;1.80;99.90
13998;DHT22;7074;51.508;7.018;2022-12-18T12:26:11;1.90;99.90
13998;DHT22;7074;51.508;7.018;2022-12-18T12:29:05;2.00;99.90
13998;DHT22;7074;51.508;7.018;2022-12-18T12:31:48;1.90;99.90
13998;DHT22;7074;51.508;7.018;2022-12-18T12:34:24;1.90;99.90
13998;DHT22;7074;51.508;7.018;2022-12-18T12:37:02;2.00;99.90
13998;DHT22;7074;51.508;7.018;2022-12-18T12:39:33;2.00;99.90
13998;DHT22;7074;51.508;7.018;2022-12-18T12:42:02;2.10;99.90
13998;DHT22;7074;51.508;7.018;2022-12-18T12:44:50;2.10;99.90
13998;DHT22;7074;51.508;7.018;2022-12-18T12:47:21;2.10;99.90
13998;DHT22;7074;51.508;7.018;2022-12-18T12:49:52;2.20;99.90
13998;DHT22;7074;51.508;7.018;2022-12-18T12:52:26;2.20;99.90
13998;DHT22;7074;51.508;7.018;2022-12-18T12:54:55;2.20;99.90
13998;DHT22;7074;51.508;7.018;2022-12-18T12:57:27;2.30;99.90
13998;DHT22;7074;51.508;7.018;2022-12-18T13:00:02;2.40;99.90
13998;DHT22;7074;51.508;7.018;2022-12-18T13:02:35;2.30;99.90
13998;DHT22;7074;51.508;7.018;2022-12-18T13:05:16;2.30;99.90
13998;DHT22;7074;51.508;7.018;2022-12-18T13:07:49;2.40;99.90
13998;DHT22;7074;51.508;7.018;2022-12-18T13:10:34;2.40;99.90
13998;DHT22;7074;51.508;7.018;2022-12-18T13:13:03;2.40;99.90
13998;DHT22;7074;51.508;7.018;2022-12-18T13:15:34;2.40;99.90
13998;DHT22;7074;51.508;7.018;2022-12-18T13:18:18;2.50;99.90
13998;DHT22;7074;51.508;7.018;2022-12-18T13:20:50;2.40;99.90
13998;DHT22;7074;51.508;7.018;2022-12-18T13:23:25;2.40;99.90
13998;DHT22;7074;51.508;7.018;2022-12-18T13:25:54;2.50;99.90
13998;DHT22;7074;51.508;7.018;2022-12-18T13:28:23;2.60;99.90
13998;DHT22;7074;51.508;7.018;2022-12-18T13:31:11;2.60;99.90
13998;DHT22;7074;51.508;7.018;2022-12-18T13:33:43;2.60;99.90
13998;DHT22;7074;51.508;7.018;2022-12-18T13:36:30;2.60;99.90
13998;DHT22;7074;51.508;7.018;2022-12-18T13:39:31;2.50;99.90
13998;DHT22;7074;51.508;7.018;2022-12-18T13:42:37;2.40;99.90
13998;DHT22;7074;51.508;7.018;2022-12-18T13:45:44;2.40;99.90
13998;DHT22;7074;51.508;7.018;2022-12-18T13:48:23;2.30;99.90
13998;DHT22;7074;51.508;7.018;2022-12-18T13:50:59;2.20;99.90
13998;DHT22;7074;51.508;7.018;2022-12-18T13:53:33;2.30;99.90
13998;DHT22;7074;51.508;7.018;2022-12-18T13:56:02;2.30;99.90
13998;DHT22;7074;51.508;7.018;2022-12-18T13:58:30;2.30;99.90
13998;DHT22;7074;51.508;7.018;2022-12-18T14:00:57;2.30;99.90
13998;DHT22;7074;51.508;7.018;2022-12-18T14:03:28;2.40;99.90
13998;DHT22;7074;51.508;7.018;2022-12-18T14:06:03;2.40;99.90
13998;DHT22;7074;51.508;7.018;2022-12-18T14:08:37;2.50;99.90
13998;DHT22;7074;51.508;7.018;2022-12-18T14:11:06;2.50;99.90
13998;DHT22;7074;51.508;7.018;2022-12-18T14:13:37;2.60;99.90
13998;DHT22;7074;51.508;7.018;2022-12-18T14:16:07;2.50;99.90
13998;DHT22;7074;51.508;7.018;2022-12-18T14:18:41;2.60;99.90
13998;DHT22;7074;51.508;7.018;2022-12-18T14:21:18;2.70;99.90
13998;DHT22;7074;51.508;7.018;2022-12-18T14:23:48;2.70;99.90
13998;DHT22;7074;51.508;7.018;2022-12-18T14:26:26;2.70;99.90
13998;DHT22;7074;51.508;7.018;2022-12-18T14:28:55;2.70;99.90
13998;DHT22;7074;51.508;7.018;2022-12-18T14:31:24;2.70;99.90
13998;DHT22;7074;51.508;7.018;2022-12-18T14:33:53;2.70;99.90
13998;DHT22;7074;51.508;7.018;2022-12-18T14:36:23;2.70;99.90
13998;DHT22;7074;51.508;7.018;2022-12-18T14:38:52;2.70;99.90
13998;DHT22;7074;51.508;7.018;2022-12-18T14:41:21;2.80;99.90
13998;DHT22;7074;51.508;7.018;2022-12-18T14:43:50;2.80;99.90
13998;DHT22;7074;51.508;7.018;2022-12-18T14:46:33;2.80;99.90
13998;DHT22;7074;51.508;7.018;2022-12-18T14:49:03;2.90;99.90
13998;DHT22;7074;51.508;7.018;2022-12-18T14:51:33;2.80;99.90
13998;DHT22;7074;51.508;7.018;2022-12-18T14:54:03;2.80;99.90
13998;DHT22;7074;51.508;7.018;2022-12-18T14:56:35;2.80;99.90
13998;DHT22;7074;51.508;7.018;2022-12-18T14:59:05;2.80;99.90
13998;DHT22;7074;51.508;7.018;2022-12-18T15:01:35;2.90;99.90
13998;DHT22;7074;51.508;7.018;2022-12-18T15:04:04;2.90;99.90
13998;DHT22;7074;51.508;7.018;2022-12-18T15:06:34;2.90;99.90
13998;DHT22;7074;51.508;7.018;2022-12-18T15:09:05;2.90;99.90
13998;DHT22;7074;51.508;7.018;2022-12-18T15:11:46;3.00;99.90
13998;DHT22;7074;51.508;7.018;2022-12-18T15:14:30;3.00;99.90
13998;DHT22;7074;51.508;7.018;2022-12-18T15:16:58;3.00;99.90
13998;DHT22;7074;51.508;7.018;2022-12-18T15:19:34;3.10;99.90
13998;DHT22;7074;51.508;7.018;2022-12-18T15:22:03;3.10;99.90
13998;DHT22;7074;51.508;7.018;2022-12-18T15:24:32;3.10;99.90
13998;DHT22;7074;51.508;7.018;2022-12-18T15:27:00;3.00;99.90
13998;DHT22;7074;51.508;7.018;2022-12-18T15:29:27;3.10;99.90
13998;DHT22;7074;51.508;7.018;2022-12-18T15:32:00;3.10;99.90
13998;DHT22;7074;51.508;7.018;2022-12-18T15:34:28;3.00;99.90
13998;DHT22;7074;51.508;7.018;2022-12-18T15:36:55;3.00;99.90
13998;DHT22;7074;51.508;7.018;2022-12-18T15:39:23;2.90;99.90
13998;DHT22;7074;51.508;7.018;2022-12-18T15:41:52;3.00;99.90
13998;DHT22;7074;51.508;7.018;2022-12-18T15:44:37;3.00;99.90
13998;DHT22;7074;51.508;7.018;2022-12-18T15:47:10;3.00;99.90
13998;DHT22;7074;51.508;7.018;2022-12-18T15:49:37;3.00;99.90
13998;DHT22;7074;51.508;7.018;2022-12-18T15:52:05;3.00;99.90
13998;DHT22;7074;51.508;7.018;2022-12-18T15:54:32;3.00;99.90
13998;DHT22;7074;51.508;7.018;2022-12-18T15:57:21;3.00;99.90
13998;DHT22;7074;51.508;7.018;2022-12-18T15:59:52;3.00;99.90
13998;DHT22;7074;51.508;7.018;2022-12-18T16:02:21;3.00;99.90
13998;DHT22;7074;51.508;7.018;2022-12-18T16:04:49;3.00;99.90
13998;DHT22;7074;51.508;7.018;2022-12-18T16:07:17;3.00;99.90
13998;DHT22;7074;51.508;7.018;2022-12-18T16:09:47;3.00;99.90
13998;DHT22;7074;51.508;7.018;2022-12-18T16:12:19;3.00;99.90
13998;DHT22;7074;51.508;7.018;2022-12-18T16:14:48;3.00;99.90
13998;DHT22;7074;51.508;7.018;2022-12-18T16:17:15;3.00;99.90
13998;DHT22;7074;51.508;7.018;2022-12-18T16:19:43;3.00;99.90
13998;DHT22;7074;51.508;7.018;2022-12-18T16:22:19;3.00;99.90
13998;DHT22;7074;51.508;7.018;2022-12-18T16:24:48;3.00;99.90
13998;DHT22;7074;51.508;7.018;2022-12-18T16:27:15;3.00;99.90
13998;DHT22;7074;51.508;7.018;2022-12-18T16:29:44;3.00;99.90
13998;DHT22;7074;51.508;7.018;2022-12-18T16:32:13;3.10;99.90
13998;DHT22;7074;51.508;7.018;2022-12-18T16:34:41;3.10;99.90
13998;DHT22;7074;51.508;7.018;2022-12-18T16:37:10;3.10;99.90
13998;DHT22;7074;51.508;7.018;2022-12-18T16:39:38;3.10;99.90
13998;DHT22;7074;51.508;7.018;2022-12-18T16:42:09;3.00;99.90
13998;DHT22;7074;51.508;7.018;2022-12-18T16:44:38;3.10;99.90
13998;DHT22;7074;51.508;7.018;2022-12-18T16:47:07;3.10;99.90
13998;DHT22;7074;51.508;7.018;2022-12-18T16:49:35;3.10;99.90
13998;DHT22;7074;51.508;7.018;2022-12-18T16:52:02;3.10;99.90
13998;DHT22;7074;51.508;7.018;2022-12-18T16:54:30;3.20;99.90
13998;DHT22;7074;51.508;7.018;2022-12-18T16:56:58;3.10;99.90
13998;DHT22;7074;51.508;7.018;2022-12-18T16:59:26;3.10;99.90
13998;DHT22;7074;51.508;7.018;2022-12-18T17:01:54;3.10;99.90
13998;DHT22;7074;51.508;7.018;2022-12-18T17:04:23;3.10;99.90
13998;DHT22;7074;51.508;7.018;2022-12-18T17:06:50;3.10;99.90
13998;DHT22;7074;51.508;7.018;2022-12-18T17:09:20;3.00;99.90
13998;DHT22;7074;51.508;7.018;2022-12-18T17:11:50;3.10;99.90
13998;DHT22;7074;51.508;7.018;2022-12-18T17:14:19;3.10;99.90
13998;DHT22;7074;51.508;7.018;2022-12-18T17:16:50;3.10;99.90
13998;DHT22;7074;51.508;7.018;2022-12-18T17:19:18;3.00;99.90
13998;DHT22;7074;51.508;7.018;2022-12-18T17:21:49;3.00;99.90
13998;DHT22;7074;51.508;7.018;2022-12-18T17:24:17;3.00;99.90
13998;DHT22;7074;51.508;7.018;2022-12-18T17:26:45;3.00;99.90
13998;DHT22;7074;51.508;7.018;2022-12-18T17:29:14;3.10;99.90
13998;DHT22;7074;51.508;7.018;2022-12-18T17:31:42;3.20;99.90
13998;DHT22;7074;51.508;7.018;2022-12-18T17:34:10;3.20;99.90
13998;DHT22;7074;51.508;7.018;2022-12-18T17:36:38;3.20;99.90
13998;DHT22;7074;51.508;7.018;2022-12-18T17:39:10;3.10;99.90
13998;DHT22;7074;51.508;7.018;2022-12-18T17:41:40;3.10;99.90
13998;DHT22;7074;51.508;7.018;2022-12-18T17:44:08;3.20;99.90
13998;DHT22;7074;51.508;7.018;2022-12-18T17:46:35;3.20;99.90
13998;DHT22;7074;51.508;7.018;2022-12-18T17:49:03;3.10;99.90
13998;DHT22;7074;51.508;7.018;2022-12-18T17:51:30;3.10;99.90
13998;DHT22;7074;51.508;7.018;2022-12-18T17:53:57;3.20;99.90
13998;DHT22;7074;51.508;7.018;2022-12-18T17:56:26;3.20;99.90
13998;DHT22;7074;51.508;7.018;2022-12-18T17:58:53;3.10;99.90
13998;DHT22;7074;51.508;7.018;2022-12-18T18:01:23;3.10;99.90
13998;DHT22;7074;51.508;7.018;2022-12-18T18:03:52;3.20;99.90
13998;DHT22;7074;51.508;7.018;2022-12-18T18:06:21;3.30;99.90
13998;DHT22;7074;51.508;7.018;2022-12-18T18:08:48;3.20;99.90
13998;DHT22;7074;51.508;7.018;2022-12-18T18:11:17;3.10;99.90
13998;DHT22;7074;51.508;7.018;2022-12-18T18:14:06;3.20;99.90
13998;DHT22;7074;51.508;7.018;2022-12-18T18:16:36;3.20;99.90
13998;DHT22;7074;51.508;7.018;2022-12-18T18:19:05;3.20;99.90
13998;DHT22;7074;51.508;7.018;2022-12-18T18:21:33;3.10;99.90
13998;DHT22;7074;51.508;7.018;2022-12-18T18:24:04;3.10;99.90
13998;DHT22;7074;51.508;7.018;2022-12-18T18:26:32;3.10;99.90
13998;DHT22;7074;51.508;7.018;2022-12-18T18:29:01;3.10;99.90
13998;DHT22;7074;51.508;7.018;2022-12-18T18:31:31;3.20;99.90
13998;DHT22;7074;51.508;7.018;2022-12-18T18:33:59;3.20;99.90
13998;DHT22;7074;51.508;7.018;2022-12-18T18:36:27;3.20;99.90
13998;DHT22;7074;51.508;7.018;2022-12-18T18:38:54;3.10;99.90
13998;DHT22;7074;51.508;7.018;2022-12-18T18:41:24;3.20;99.90
13998;DHT22;7074;51.508;7.018;2022-12-18T18:43:53;3.20;99.90
13998;DHT22;7074;51.508;7.018;2022-12-18T18:46:21;3.20;99.90
13998;DHT22;7074;51.508;7.018;2022-12-18T18:48:50;3.20;99.90
13998;DHT22;7074;51.508;7.018;2022-12-18T18:51:18;3.20;99.90
13998;DHT22;7074;51.508;7.018;2022-12-18T18:53:47;3.20;99.90
13998;DHT22;7074;51.508;7.018;2022-12-18T18:56:16;3.10;99.90
13998;DHT22;7074;51.508;7.018;2022-12-18T18:58:44;3.10;99.90
13998;DHT22;7074;51.508;7.018;2022-12-18T19:01:13;3.00;99.90
13998;DHT22;7074;51.508;7.018;2022-12-18T19:03:41;2.90;99.90
13998;DHT22;7074;51.508;7.018;2022-12-18T19:06:11;3.00;99.90
13998;DHT22;7074;51.508;7.018;2022-12-18T19:08:40;3.00;99.90
13998;DHT22;7074;51.508;7.018;2022-12-18T19:11:08;3.00;99.90
13998;DHT22;7074;51.508;7.018;2022-12-18T19:13:57;3.00;99.90
13998;DHT22;7074;51.508;7.018;2022-12-18T19:16:25;3.00;99.90
13998;DHT22;7074;51.508;7.018;2022-12-18T19:18:54;3.00;99.90
13998;DHT22;7074;51.508;7.018;2022-12-18T19:21:23;2.90;99.90
13998;DHT22;7074;51.508;7.018;2022-12-18T19:23:51;2.90;99.90
13998;DHT22;7074;51.508;7.018;2022-12-18T19:26:19;3.00;99.90
13998;DHT22;7074;51.508;7.018;2022-12-18T19:28:47;3.00;99.90
13998;DHT22;7074;51.508;7.018;2022-12-18T19:31:16;2.90;99.90
13998;DHT22;7074;51.508;7.018;2022-12-18T19:33:52;2.90;99.90
13998;DHT22;7074;51.508;7.018;2022-12-18T19:36:21;2.90;99.90
13998;DHT22;7074;51.508;7.018;2022-12-18T19:38:55;2.90;99.90
13998;DHT22;7074;51.508;7.018;2022-12-18T19:41:23;3.00;99.90
13998;DHT22;7074;51.508;7.018;2022-12-18T19:43:51;2.90;99.90
13998;DHT22;7074;51.508;7.018;2022-12-18T19:46:20;3.00;99.90
13998;DHT22;7074;51.508;7.018;2022-12-18T19:48:48;3.10;99.90
13998;DHT22;7074;51.508;7.018;2022-12-18T19:51:18;3.00;99.90
13998;DHT22;7074;51.508;7.018;2022-12-18T19:53:45;3.10;99.90
13998;DHT22;7074;51.508;7.018;2022-12-18T19:56:15;3.10;99.90
13998;DHT22;7074;51.508;7.018;2022-12-18T19:58:44;3.20;99.90
13998;DHT22;7074;51.508;7.018;2022-12-18T20:01:12;3.20;99.90
13998;DHT22;7074;51.508;7.018;2022-12-18T20:03:39;3.20;99.90
13998;DHT22;7074;51.508;7.018;2022-12-18T20:06:08;3.10;99.90
13998;DHT22;7074;51.508;7.018;2022-12-18T20:08:35;3.10;99.90
13998;DHT22;7074;51.508;7.018;2022-12-18T20:11:03;3.20;99.90
13998;DHT22;7074;51.508;7.018;2022-12-18T20:13:32;3.20;99.90
13998;DHT22;7074;51.508;7.018;2022-12-18T20:16:00;3.30;99.90
13998;DHT22;7074;51.508;7.018;2022-12-18T20:18:27;3.30;99.90
13998;DHT22;7074;51.508;7.018;2022-12-18T20:20:55;3.30;99.90
13998;DHT22;7074;51.508;7.018;2022-12-18T20:23:22;3.20;99.90